Time;durP1;ratioP1;P1;durP2;ratioP2;P2;SDS_P1;SDS_P2;PMS_P1;PMS_P2;Temp;Humidity;BMP_temperature;BMP_pressure;BME280_temperature;BME280_humidity;BME280_pressure;Samples;Min_cycle;Max_cycle;Signal;HPM_P1;HPM_P2
2020/12/14 00:00:40;;;;;;;4.10;1.52;;;7.10;99.90;;;;;;5072837;28;20060;-65
2020/12/14 00:03:07;;;;;;;2.53;1.02;;;7.20;99.90;;;;;;5072874;28;20049;-65
2020/12/14 00:05:34;;;;;;;4.72;1.63;;;7.10;99.90;;;;;;5074187;28;20052;-65
2020/12/14 00:08:02;;;;;;;4.03;1.83;;;7.20;99.90;;;;;;5072405;28;20040;-65
2020/12/14 00:10:29;;;;;;;4.60;1.40;;;7.00;99.90;;;;;;5074166;28;20493;-65
2020/12/14 00:12:58;;;;;;;4.55;2.05;;;7.10;99.90;;;;;;5071408;28;20080;-65
2020/12/14 00:15:24;;;;;;;3.15;1.55;;;7.00;99.90;;;;;;5073550;28;20052;-65
2020/12/14 00:17:52;;;;;;;4.13;1.40;;;7.00;99.90;;;;;;5073048;28;20076;-65
2020/12/14 00:20:18;;;;;;;3.53;1.92;;;7.20;99.90;;;;;;5067259;28;20076;-65
2020/12/14 00:22:45;;;;;;;5.50;1.58;;;7.20;99.90;;;;;;5073839;28;20048;-65
2020/12/14 00:25:11;;;;;;;3.03;1.60;;;7.30;99.90;;;;;;5071984;28;20053;-65
2020/12/14 00:27:38;;;;;;;4.03;1.60;;;7.30;99.90;;;;;;5069110;28;20519;-65
2020/12/14 00:30:07;;;;;;;3.65;1.30;;;7.40;99.90;;;;;;5072975;28;20551;-65
2020/12/14 00:32:33;;;;;;;3.05;1.35;;;7.40;99.90;;;;;;5072963;28;20474;-65
2020/12/14 00:35:01;;;;;;;6.50;1.73;;;7.30;99.90;;;;;;5072960;28;20044;-65
2020/12/14 00:37:27;;;;;;;3.03;1.50;;;7.30;99.90;;;;;;5073627;28;20131;-65
2020/12/14 00:39:54;;;;;;;3.03;1.33;;;7.30;99.90;;;;;;5072579;28;20075;-65
2020/12/14 00:42:21;;;;;;;4.10;1.30;;;7.30;99.90;;;;;;5071931;28;20126;-66
2020/12/14 00:44:48;;;;;;;5.45;1.73;;;7.40;99.90;;;;;;5073323;28;20048;-65
2020/12/14 00:47:16;;;;;;;5.00;1.30;;;7.40;99.90;;;;;;5073289;28;20076;-65
2020/12/14 00:49:43;;;;;;;6.00;1.50;;;7.40;99.90;;;;;;5071157;28;20086;-65
2020/12/14 00:52:11;;;;;;;3.42;1.27;;;7.40;99.90;;;;;;5073518;28;20567;-65
2020/12/14 00:54:37;;;;;;;5.80;1.33;;;7.40;99.90;;;;;;5072230;28;20106;-65
2020/12/14 00:57:04;;;;;;;5.00;1.30;;;7.60;99.90;;;;;;5072678;28;20082;-65
2020/12/14 00:59:30;;;;;;;2.53;1.30;;;7.50;99.90;;;;;;5072385;28;20083;-65
2020/12/14 01:01:57;;;;;;;4.70;1.42;;;7.50;99.90;;;;;;5071477;28;20048;-65
2020/12/14 01:04:23;;;;;;;5.28;1.40;;;7.60;99.90;;;;;;5070702;28;20179;-65
2020/12/14 01:06:52;;;;;;;4.70;1.38;;;7.60;99.90;;;;;;5073345;28;20490;-65
2020/12/14 01:09:20;;;;;;;5.05;1.20;;;7.60;99.90;;;;;;5070499;28;20052;-65
2020/12/14 01:11:46;;;;;;;4.82;1.58;;;7.60;99.90;;;;;;5072963;28;20056;-66
2020/12/14 01:14:13;;;;;;;3.03;1.20;;;7.60;99.90;;;;;;5071308;28;20500;-65
2020/12/14 01:16:40;;;;;;;3.70;1.40;;;7.40;99.90;;;;;;5073076;28;20084;-65
2020/12/14 01:19:06;;;;;;;2.90;1.20;;;7.40;99.90;;;;;;5071808;28;20055;-65
2020/12/14 01:21:33;;;;;;;7.03;1.73;;;7.50;99.90;;;;;;5071426;28;20049;-65
2020/12/14 01:23:59;;;;;;;5.18;1.88;;;7.50;99.90;;;;;;5072927;28;20409;-65
2020/12/14 01:26:27;;;;;;;3.95;1.45;;;7.60;99.90;;;;;;5070936;28;20103;-65
2020/12/14 01:28:53;;;;;;;2.55;1.05;;;7.60;99.90;;;;;;5072753;28;20056;-65
2020/12/14 01:31:20;;;;;;;3.53;1.77;;;7.60;99.90;;;;;;5071512;28;20048;-65
2020/12/14 01:33:47;;;;;;;4.47;1.73;;;7.50;99.90;;;;;;5070897;28;20393;-65
2020/12/14 01:36:16;;;;;;;3.50;1.38;;;7.60;99.90;;;;;;5072678;28;20052;-65
2020/12/14 01:38:42;;;;;;;4.55;1.38;;;7.50;99.90;;;;;;5071589;28;20053;-65
2020/12/14 01:41:09;;;;;;;4.22;1.45;;;7.40;99.90;;;;;;5072036;28;20061;-65
2020/12/14 01:43:36;;;;;;;4.43;1.63;;;7.40;99.90;;;;;;5070607;28;20049;-65
2020/12/14 01:46:03;;;;;;;4.18;1.50;;;7.50;99.90;;;;;;5072693;28;20126;-65
2020/12/14 01:48:30;;;;;;;3.80;1.35;;;7.40;99.90;;;;;;5069630;28;20080;-65
2020/12/14 01:50:57;;;;;;;3.35;1.25;;;7.50;99.90;;;;;;5071503;28;20098;-65
2020/12/14 01:53:26;;;;;;;3.25;1.23;;;7.60;99.90;;;;;;5072621;28;20080;-65
2020/12/14 01:55:54;;;;;;;;;;;7.60;99.90;;;;;;5071689;28;20053;-65
2020/12/14 01:58:20;;;;;;;2.15;1.15;;;7.60;99.90;;;;;;5072432;28;20384;-65
2020/12/14 02:00:48;;;;;;;3.53;1.20;;;7.60;99.90;;;;;;5071589;28;20048;-65
2020/12/14 02:03:14;;;;;;;4.50;1.30;;;7.60;99.90;;;;;;5071430;28;20539;-65
2020/12/14 02:05:41;;;;;;;3.65;1.50;;;7.70;99.90;;;;;;5072305;28;20084;-65
2020/12/14 02:08:08;;;;;;;2.85;1.27;;;7.70;99.90;;;;;;5071591;28;20080;-65
2020/12/14 02:10:35;;;;;;;3.50;1.13;;;7.70;99.90;;;;;;5072468;28;20409;-65
2020/12/14 02:13:05;;;;;;;3.80;1.20;;;7.70;99.90;;;;;;5069853;28;20110;-66
2020/12/14 02:15:33;;;;;;;4.28;1.10;;;7.60;99.90;;;;;;5070998;28;20127;-65
2020/12/14 02:18:01;;;;;;;2.65;1.10;;;7.70;99.90;;;;;;5072121;28;20084;-65
2020/12/14 02:20:27;;;;;;;3.33;1.20;;;7.70;99.90;;;;;;5071566;28;20061;-65
2020/12/14 02:22:54;;;;;;;3.45;1.15;;;7.80;99.90;;;;;;5072242;28;20517;-65
2020/12/14 02:25:21;;;;;;;4.30;1.48;;;7.70;99.90;;;;;;5069519;28;20439;-65
2020/12/14 02:27:48;;;;;;;3.60;1.10;;;7.70;99.90;;;;;;5072075;28;20075;-65
2020/12/14 02:30:15;;;;;;;3.10;1.15;;;7.60;99.90;;;;;;5071308;28;20127;-65
2020/12/14 02:32:42;;;;;;;3.65;1.38;;;7.60;99.90;;;;;;5071431;28;20049;-65
2020/12/14 02:35:09;;;;;;;4.30;1.27;;;7.50;99.90;;;;;;5071381;28;20044;-65
2020/12/14 02:37:35;;;;;;;3.15;1.20;;;7.50;99.90;;;;;;5072331;28;20048;-65
2020/12/14 02:40:02;;;;;;;2.92;1.33;;;7.50;99.90;;;;;;5071154;28;20080;-65
2020/12/14 02:42:29;;;;;;;3.65;1.20;;;7.40;99.90;;;;;;5071867;28;20485;-65
2020/12/14 02:44:56;;;;;;;3.95;1.27;;;7.40;99.90;;;;;;5073191;28;20106;-65
2020/12/14 02:47:22;;;;;;;1.83;0.88;;;7.40;99.90;;;;;;5075830;28;20485;-65
2020/12/14 02:49:49;;;;;;;3.63;1.25;;;7.40;99.90;;;;;;5074744;28;20569;-65
2020/12/14 02:52:16;;;;;;;1.90;1.00;;;7.40;99.90;;;;;;5075000;28;20061;-65
2020/12/14 02:54:45;;;;;;;5.70;1.50;;;7.50;99.90;;;;;;5075548;28;20103;-65
2020/12/14 02:57:12;;;;;;;2.28;0.98;;;7.40;99.90;;;;;;5072794;28;20076;-65
2020/12/14 02:59:39;;;;;;;2.83;1.33;;;7.40;99.90;;;;;;5074477;28;20060;-65
2020/12/14 03:02:06;;;;;;;5.72;1.30;;;7.50;99.90;;;;;;5073408;28;20060;-65
2020/12/14 03:04:35;;;;;;;3.92;1.48;;;7.40;99.90;;;;;;5075628;28;20060;-65
2020/12/14 03:07:02;;;;;;;3.60;1.55;;;7.30;99.90;;;;;;5074722;28;20067;-65
2020/12/14 03:09:29;;;;;;;4.22;1.48;;;7.40;99.90;;;;;;5074566;28;20055;-65
2020/12/14 03:11:55;;;;;;;2.20;1.25;;;7.40;99.90;;;;;;5075627;28;20080;-65
2020/12/14 03:14:25;;;;;;;3.72;1.23;;;7.40;99.90;;;;;;5074291;28;20447;-65
2020/12/14 03:16:56;;;;;;;3.20;1.85;;;7.50;99.90;;;;;;5075111;28;20060;-65
2020/12/14 03:19:23;;;;;;;3.08;1.20;;;7.50;99.90;;;;;;5074927;28;20053;-65
2020/12/14 03:21:49;;;;;;;9.60;1.52;;;7.60;99.90;;;;;;5075133;28;20080;-65
2020/12/14 03:24:17;;;;;;;4.53;1.40;;;7.60;99.90;;;;;;5074949;28;20052;-65
2020/12/14 03:26:46;;;;;;;2.63;1.55;;;7.60;99.90;;;;;;5060974;28;20470;-65
2020/12/14 03:29:12;;;;;;;2.53;1.23;;;7.50;99.90;;;;;;5075150;28;20431;-66
2020/12/14 03:31:38;;;;;;;3.63;1.52;;;7.50;99.90;;;;;;5074023;28;20094;-65
2020/12/14 03:34:06;;;;;;;3.38;1.30;;;7.50;99.90;;;;;;5072227;28;20128;-65
2020/12/14 03:36:32;;;;;;;4.35;1.58;;;7.50;99.90;;;;;;5074673;28;20041;-65
2020/12/14 03:38:59;;;;;;;4.63;1.60;;;7.50;99.90;;;;;;5073676;28;20036;-65
2020/12/14 03:41:26;;;;;;;3.28;1.60;;;7.40;99.90;;;;;;5074010;28;20097;-65
2020/12/14 03:43:53;;;;;;;4.47;1.85;;;7.50;99.90;;;;;;5073722;28;20585;-66
2020/12/14 03:46:21;;;;;;;4.30;1.30;;;7.50;99.90;;;;;;5074653;28;20076;-65
2020/12/14 03:48:48;;;;;;;4.18;1.50;;;7.50;99.90;;;;;;5074257;28;20094;-65
2020/12/14 03:51:16;;;;;;;3.83;1.02;;;7.60;99.90;;;;;;5074382;28;20045;-65
2020/12/14 03:53:42;;;;;;;5.07;1.58;;;7.60;99.90;;;;;;5073930;28;20080;-65
2020/12/14 03:56:09;;;;;;;4.35;1.38;;;7.70;99.90;;;;;;5071550;28;20071;-65
2020/12/14 03:58:35;;;;;;;4.57;1.40;;;7.70;99.90;;;;;;5074465;28;20520;-65
2020/12/14 04:01:02;;;;;;;3.72;1.50;;;7.80;99.90;;;;;;5073487;28;20177;-65
2020/12/14 04:03:29;;;;;;;2.85;1.45;;;7.90;99.90;;;;;;5071546;28;20079;-65
2020/12/14 04:05:55;;;;;;;4.00;1.40;;;8.00;99.90;;;;;;5074300;28;20121;-65
2020/12/14 04:08:23;;;;;;;3.90;1.00;;;8.10;99.90;;;;;;5073166;28;20478;-65
2020/12/14 04:10:49;;;;;;;3.25;1.20;;;8.10;99.90;;;;;;5073123;28;20080;-65
2020/12/14 04:13:16;;;;;;;4.13;1.30;;;8.10;99.90;;;;;;5072751;28;20502;-65
2020/12/14 04:15:42;;;;;;;3.78;1.20;;;8.20;99.90;;;;;;5073196;28;20470;-65
2020/12/14 04:18:09;;;;;;;4.03;1.27;;;8.20;99.90;;;;;;5074042;28;20106;-65
2020/12/14 04:20:35;;;;;;;2.22;1.10;;;8.30;99.90;;;;;;5065418;28;20139;-65
2020/12/14 04:23:02;;;;;;;3.70;1.90;;;8.30;99.90;;;;;;5073904;28;20413;-65
2020/12/14 04:25:29;;;;;;;2.40;1.73;;;8.40;99.90;;;;;;5073162;28;20094;-65
2020/12/14 04:27:59;;;;;;;3.92;1.27;;;8.40;99.90;;;;;;5072120;28;20452;-65
2020/12/14 04:30:25;;;;;;;;;;;8.40;99.90;;;;;;5074205;28;20044;-65
2020/12/14 04:32:56;;;;;;;2.17;1.00;;;8.40;99.90;;;;;;5073117;28;20343;-65
2020/12/14 04:35:23;;;;;;;4.35;1.30;;;8.50;99.90;;;;;;5073538;28;20048;-65
2020/12/14 04:37:50;;;;;;;3.05;0.90;;;8.50;99.90;;;;;;5072809;28;20099;-65
2020/12/14 04:40:19;;;;;;;3.42;1.20;;;8.50;99.90;;;;;;5071713;28;20086;-65
2020/12/14 04:42:50;;;;;;;3.72;1.50;;;8.50;99.90;;;;;;5073769;28;20056;-65
2020/12/14 04:45:17;;;;;;;4.50;1.63;;;8.50;99.90;;;;;;5072363;28;20049;-65
2020/12/14 04:47:45;;;;;;;3.75;1.35;;;8.40;99.90;;;;;;5073264;28;20091;-65
2020/12/14 04:50:12;;;;;;;4.25;1.48;;;8.40;99.90;;;;;;5052378;28;20101;-65
2020/12/14 04:52:42;;;;;;;4.82;1.20;;;8.50;99.90;;;;;;5051912;28;20059;-66
2020/12/14 04:55:11;;;;;;;5.45;1.48;;;8.50;99.90;;;;;;5052429;28;20045;-66
2020/12/14 04:57:38;;;;;;;4.28;1.25;;;8.50;99.90;;;;;;5052631;28;20088;-65
2020/12/14 05:00:07;;;;;;;3.05;1.30;;;8.50;99.90;;;;;;5052484;28;20424;-65
2020/12/14 05:02:34;;;;;;;3.85;1.40;;;8.50;99.90;;;;;;5050776;28;20049;-65
2020/12/14 05:05:00;;;;;;;6.80;1.58;;;8.50;99.90;;;;;;5053022;28;20052;-65
2020/12/14 05:07:41;;;;;;;5.60;1.33;;;8.50;99.90;;;;;;5051883;28;20049;-65
2020/12/14 05:10:08;;;;;;;3.80;1.20;;;8.50;99.90;;;;;;5052907;28;20052;-66
2020/12/14 05:12:40;;;;;;;2.22;1.20;;;8.60;99.90;;;;;;5051374;28;20049;-65
2020/12/14 05:15:18;;;;;;;2.20;1.10;;;8.50;99.90;;;;;;5050237;28;20395;-65
2020/12/14 05:17:45;;;;;;;2.38;1.30;;;8.60;99.90;;;;;;5052999;28;20490;-65
2020/12/14 05:20:16;;;;;;;4.57;1.17;;;8.60;99.90;;;;;;5051503;28;20044;-66
2020/12/14 05:23:01;;;;;;;2.17;1.15;;;8.50;99.90;;;;;;5052947;28;20405;-65
2020/12/14 05:25:27;;;;;;;2.58;1.30;;;8.30;99.90;;;;;;5050073;28;20088;-65
2020/12/14 05:28:03;;;;;;;2.45;0.90;;;8.50;99.90;;;;;;5051033;28;20041;-66
2020/12/14 05:30:42;;;;;;;3.00;1.25;;;8.40;99.90;;;;;;5051910;28;20095;-65
2020/12/14 05:33:12;;;;;;;3.50;1.38;;;8.30;99.90;;;;;;5051127;28;20087;-65
2020/12/14 05:35:40;;;;;;;2.22;1.23;;;8.30;99.90;;;;;;5052121;28;20047;-65
2020/12/14 05:38:11;;;;;;;3.17;1.40;;;8.30;99.90;;;;;;5052323;28;20088;-65
2020/12/14 05:40:38;;;;;;;3.20;1.20;;;8.30;99.90;;;;;;5051430;28;20095;-65
2020/12/14 05:43:09;;;;;;;3.67;1.38;;;8.30;99.90;;;;;;5051726;28;20049;-65
2020/12/14 05:45:35;;;;;;;6.03;1.50;;;8.40;99.90;;;;;;5050641;28;20378;-65
2020/12/14 05:48:21;;;;;;;2.75;1.10;;;8.50;99.90;;;;;;5054296;28;20498;-65
2020/12/14 05:50:49;;;;;;;3.53;1.48;;;8.50;99.90;;;;;;5071569;28;20052;-65
2020/12/14 05:53:20;;;;;;;2.80;1.63;;;8.30;99.90;;;;;;5072609;28;20152;-65
2020/12/14 05:55:47;;;;;;;2.90;1.45;;;8.20;99.90;;;;;;5071613;28;20474;-65
2020/12/14 05:58:15;;;;;;;3.70;1.20;;;8.30;99.90;;;;;;5071320;28;20055;-65
2020/12/14 06:00:44;;;;;;;2.35;1.20;;;8.30;99.90;;;;;;5071801;28;20139;-65
2020/12/14 06:03:15;;;;;;;2.17;1.23;;;8.30;99.90;;;;;;5069642;28;20095;-65
2020/12/14 06:05:42;;;;;;;4.60;1.40;;;8.30;99.90;;;;;;5072608;28;20493;-65
2020/12/14 06:08:43;;;;;;;3.63;1.60;;;8.20;99.90;;;;;;5071624;28;20040;-65
2020/12/14 06:11:12;;;;;;;2.30;1.05;;;8.30;99.90;;;;;;5071438;28;20086;-65
2020/12/14 06:13:48;;;;;;;2.47;0.95;;;8.30;99.90;;;;;;5072701;28;20430;-65
2020/12/14 06:16:19;;;;;;;3.38;1.30;;;8.20;99.90;;;;;;5072101;28;20102;-65
2020/12/14 06:18:48;;;;;;;3.35;1.30;;;8.20;99.90;;;;;;5075157;28;20127;-65
2020/12/14 06:21:19;;;;;;;3.90;1.50;;;8.10;99.90;;;;;;5075598;28;20543;-65
2020/12/14 06:23:47;;;;;;;2.80;1.10;;;8.20;99.90;;;;;;5075201;28;20102;-65
2020/12/14 06:26:15;;;;;;;2.92;1.55;;;8.20;99.90;;;;;;5069664;28;20048;-65
2020/12/14 06:28:41;;;;;;;2.65;1.20;;;8.10;99.90;;;;;;5079649;28;20128;-65
2020/12/14 06:31:08;;;;;;;3.50;1.00;;;8.20;99.90;;;;;;5075280;28;20130;-65
2020/12/14 06:33:36;;;;;;;4.88;1.40;;;8.20;99.90;;;;;;5074241;28;20098;-65
2020/12/14 06:36:18;;;;;;;2.15;1.40;;;8.30;99.90;;;;;;5075116;28;20068;-65
2020/12/14 06:38:46;;;;;;;4.60;1.20;;;8.40;99.90;;;;;;5074862;28;20467;-65
2020/12/14 06:41:14;;;;;;;5.20;1.55;;;8.30;99.90;;;;;;5074946;28;20478;-65
2020/12/14 06:43:42;;;;;;;4.50;1.73;;;8.30;99.90;;;;;;5075234;28;20099;-65
2020/12/14 06:46:09;;;;;;;1.85;1.20;;;8.40;99.90;;;;;;5074988;28;20070;-65
2020/12/14 06:48:41;;;;;;;3.05;1.20;;;8.30;99.90;;;;;;5055562;28;20083;-65
2020/12/14 06:51:09;;;;;;;2.92;1.08;;;8.30;99.90;;;;;;5070567;28;20048;-65
2020/12/14 06:53:48;;;;;;;2.40;1.20;;;8.60;99.90;;;;;;5076063;28;20506;-65
2020/12/14 06:56:16;;;;;;;2.42;1.10;;;8.60;99.90;;;;;;5077460;28;20044;-65
2020/12/14 06:58:44;;;;;;;1.98;1.23;;;8.50;99.90;;;;;;5080096;28;20045;-65
2020/12/14 07:01:33;;;;;;;4.35;1.20;;;8.60;99.90;;;;;;5074979;28;20086;-65
2020/12/14 07:04:06;;;;;;;2.67;1.20;;;8.50;99.90;;;;;;5075818;28;20416;-65
2020/12/14 07:06:33;;;;;;;3.05;1.35;;;8.60;99.90;;;;;;5067716;28;20738;-65
2020/12/14 07:09:25;;;;;;;3.40;1.48;;;8.60;99.90;;;;;;5068649;28;20056;-65
2020/12/14 07:11:54;;;;;;;3.97;1.80;;;8.60;99.90;;;;;;5067087;28;20055;-65
2020/12/14 07:14:30;;;;;;;3.80;1.33;;;8.70;99.90;;;;;;5068122;28;20473;-66
2020/12/14 07:17:02;;;;;;;3.53;1.60;;;8.80;99.90;;;;;;5072011;28;20442;-65
2020/12/14 07:19:38;;;;;;;4.18;1.40;;;8.90;99.90;;;;;;5073940;28;20052;-65
2020/12/14 07:22:04;;;;;;;3.67;1.02;;;8.80;99.90;;;;;;5093475;28;20055;-65
2020/12/14 07:24:35;;;;;;;2.67;1.20;;;8.90;99.90;;;;;;5095161;28;20077;-65
2020/12/14 07:27:02;;;;;;;1.85;1.10;;;8.90;99.90;;;;;;5088603;28;20060;-65
2020/12/14 07:29:28;;;;;;;2.03;1.20;;;8.80;99.90;;;;;;5067929;28;20079;-65
2020/12/14 07:31:55;;;;;;;3.22;1.30;;;8.90;99.90;;;;;;5074652;28;20515;-65
2020/12/14 07:34:22;;;;;;;2.85;1.38;;;8.90;99.90;;;;;;5074760;28;20048;-66
2020/12/14 07:36:48;;;;;;;3.40;1.30;;;9.00;99.90;;;;;;5074899;28;20049;-66
2020/12/14 07:39:15;;;;;;;3.28;1.17;;;9.00;99.90;;;;;;5074827;28;20497;-66
2020/12/14 07:41:47;;;;;;;2.97;1.10;;;9.00;99.90;;;;;;5074745;28;20052;-66
2020/12/14 07:44:14;;;;;;;3.70;1.40;;;8.90;99.90;;;;;;5063971;28;20107;-66
2020/12/14 07:46:41;;;;;;;3.38;1.88;;;9.00;99.90;;;;;;5070527;28;20045;-66
2020/12/14 07:49:12;;;;;;;2.45;1.15;;;9.00;99.90;;;;;;5069226;28;20067;-66
2020/12/14 07:51:41;;;;;;;3.20;1.25;;;9.00;99.90;;;;;;5072254;28;20052;-66
2020/12/14 07:54:13;;;;;;;4.13;1.42;;;9.20;99.90;;;;;;5072781;28;20465;-66
2020/12/14 07:56:41;;;;;;;4.05;1.70;;;9.20;99.90;;;;;;5072023;28;20048;-66
2020/12/14 07:59:18;;;;;;;3.38;1.40;;;9.20;99.90;;;;;;5071399;28;20131;-66
2020/12/14 08:01:46;;;;;;;2.08;1.55;;;9.20;99.90;;;;;;5072059;28;20134;-66
2020/12/14 08:04:19;;;;;;;2.42;1.20;;;9.30;99.90;;;;;;5067832;28;20052;-66
2020/12/14 08:06:49;;;;;;;3.40;1.90;;;9.30;99.90;;;;;;5074698;28;20052;-66
2020/12/14 08:09:18;;;;;;;2.92;1.08;;;9.20;99.90;;;;;;5072600;28;20072;-66
2020/12/14 08:11:47;;;;;;;3.55;1.65;;;9.20;99.90;;;;;;5074299;28;20045;-66
2020/12/14 08:14:17;;;;;;;2.95;1.58;;;9.20;99.90;;;;;;5069913;28;20048;-66
2020/12/14 08:16:47;;;;;;;2.75;1.60;;;9.30;99.90;;;;;;5079765;28;20084;-66
2020/12/14 08:19:19;;;;;;;3.05;1.23;;;9.40;99.90;;;;;;5074568;28;20044;-66
2020/12/14 08:22:08;;;;;;;3.03;1.40;;;9.40;99.90;;;;;;5076538;28;20063;-66
2020/12/14 08:24:35;;;;;;;2.70;1.85;;;9.40;99.90;;;;;;5065915;28;20087;-66
2020/12/14 08:27:04;;;;;;;3.40;1.52;;;9.30;99.90;;;;;;5070208;28;20102;-66
2020/12/14 08:29:33;;;;;;;4.97;1.88;;;9.40;99.90;;;;;;5075949;28;20146;-66
2020/12/14 08:32:01;;;;;;;4.97;1.92;;;9.40;99.90;;;;;;5072687;28;20559;-66
2020/12/14 08:34:33;;;;;;;3.00;1.40;;;9.20;99.90;;;;;;5076894;28;20045;-66
2020/12/14 08:37:00;;;;;;;4.95;1.88;;;8.70;99.90;;;;;;5074429;28;20071;-66
2020/12/14 08:39:27;;;;;;;4.95;2.30;;;8.50;99.90;;;;;;5078787;28;20485;-66
2020/12/14 08:42:10;;;;;;;3.28;1.88;;;8.60;99.90;;;;;;5075603;28;20044;-66
2020/12/14 08:44:42;;;;;;;4.72;2.38;;;8.50;99.90;;;;;;5073322;28;20052;-66
2020/12/14 08:47:15;;;;;;;3.47;2.17;;;8.50;99.90;;;;;;5073964;28;20071;-66
2020/12/14 08:49:43;;;;;;;3.95;2.20;;;8.50;99.90;;;;;;5079489;28;20067;-66
2020/12/14 08:52:19;;;;;;;2.78;1.83;;;8.60;99.90;;;;;;5072496;28;20072;-66
2020/12/14 08:54:55;;;;;;;2.72;1.88;;;8.60;99.90;;;;;;5074595;28;20476;-66
2020/12/14 08:57:27;;;;;;;3.42;2.05;;;8.60;99.90;;;;;;5073303;28;20049;-66
2020/12/14 09:00:08;;;;;;;4.30;2.38;;;8.60;99.90;;;;;;5072165;28;20056;-66
2020/12/14 09:02:36;;;;;;;3.45;2.22;;;8.70;99.90;;;;;;5070849;28;20102;-66
2020/12/14 09:05:14;;;;;;;4.38;1.80;;;8.70;99.90;;;;;;5070934;28;20436;-66
2020/12/14 09:07:41;;;;;;;5.63;2.00;;;8.80;99.90;;;;;;5068414;28;20056;-66
2020/12/14 09:10:17;;;;;;;3.28;2.28;;;8.90;99.90;;;;;;5078931;28;20476;-66
2020/12/14 09:12:44;;;;;;;2.63;1.60;;;9.00;99.90;;;;;;5075766;28;20459;-66
2020/12/14 09:15:12;;;;;;;3.17;1.95;;;9.10;99.90;;;;;;5072061;28;20199;-66
2020/12/14 09:17:38;;;;;;;2.90;1.90;;;9.20;99.90;;;;;;5072907;28;20131;-66
2020/12/14 09:20:09;;;;;;;3.03;1.90;;;9.40;99.90;;;;;;5082346;28;20040;-66
2020/12/14 09:22:38;;;;;;;3.50;1.70;;;9.40;99.90;;;;;;5073319;28;20059;-66
2020/12/14 09:25:07;;;;;;;2.33;1.50;;;9.50;99.90;;;;;;5071651;28;20508;-66
2020/12/14 09:27:34;;;;;;;3.20;1.90;;;9.40;99.90;;;;;;5073148;28;20056;-66
2020/12/14 09:30:00;;;;;;;2.85;1.50;;;9.40;99.90;;;;;;5071635;28;20045;-66
2020/12/14 09:32:28;;;;;;;4.10;1.67;;;9.40;99.90;;;;;;5072000;28;20462;-66
2020/12/14 09:34:54;;;;;;;2.88;1.80;;;9.40;99.90;;;;;;5071891;28;20482;-66
2020/12/14 09:37:21;;;;;;;2.60;1.35;;;9.30;99.90;;;;;;5080281;28;20044;-66
2020/12/14 09:39:47;;;;;;;4.25;1.88;;;9.40;99.90;;;;;;5071680;28;20091;-66
2020/12/14 09:42:14;;;;;;;2.63;1.50;;;9.40;99.90;;;;;;5071856;28;20485;-66
2020/12/14 09:44:41;;;;;;;4.13;1.67;;;9.40;99.90;;;;;;5072673;28;20048;-66
2020/12/14 09:47:09;;;;;;;3.53;1.60;;;9.50;99.90;;;;;;5070878;28;20079;-66
2020/12/14 09:49:37;;;;;;;2.80;1.70;;;9.50;99.90;;;;;;5074766;28;20056;-66
2020/12/14 09:52:03;;;;;;;2.85;1.60;;;9.50;99.90;;;;;;5072363;28;20044;-66
2020/12/14 09:54:30;;;;;;;4.32;2.28;;;9.50;99.90;;;;;;5074969;28;20048;-66
2020/12/14 09:56:57;;;;;;;3.38;1.83;;;9.50;99.90;;;;;;5073461;28;20048;-66
2020/12/14 09:59:23;;;;;;;2.85;1.73;;;9.50;99.90;;;;;;5072185;28;20045;-66
2020/12/14 10:01:50;;;;;;;4.85;1.83;;;9.50;99.90;;;;;;5071229;28;20091;-66
2020/12/14 10:04:16;;;;;;;3.28;1.70;;;9.60;99.90;;;;;;5072523;28;20086;-66
2020/12/14 10:06:47;;;;;;;2.70;1.52;;;9.80;99.90;;;;;;5071170;28;20110;-66
2020/12/14 10:09:14;;;;;;;3.47;1.70;;;9.90;99.90;;;;;;5063762;28;20055;-67
2020/12/14 10:11:40;;;;;;;2.22;1.45;;;10.00;99.90;;;;;;5078297;28;20052;-66
2020/12/14 10:14:07;;;;;;;4.13;1.50;;;10.10;99.90;;;;;;5066727;28;20448;-66
2020/12/14 10:16:35;;;;;;;2.95;1.60;;;10.00;99.90;;;;;;5071538;28;20052;-66
2020/12/14 10:19:03;;;;;;;3.88;1.92;;;10.00;99.90;;;;;;5071262;28;20110;-66
2020/12/14 10:21:30;;;;;;;4.13;1.77;;;10.00;99.90;;;;;;5071243;28;20425;-66
2020/12/14 10:23:57;;;;;;;4.13;1.50;;;10.30;99.90;;;;;;5071950;28;20060;-66
2020/12/14 10:26:26;;;;;;;4.47;2.13;;;10.40;99.90;;;;;;5073642;28;20052;-66
2020/12/14 10:28:53;;;;;;;6.60;1.53;;;10.50;99.90;;;;;;5070803;28;20051;-66
2020/12/14 10:31:19;;;;;;;2.33;1.58;;;10.50;99.90;;;;;;5077773;28;20492;-66
2020/12/14 10:33:47;;;;;;;2.60;1.52;;;10.40;99.90;;;;;;5071670;28;20052;-66
2020/12/14 10:36:18;;;;;;;2.63;1.40;;;10.50;99.90;;;;;;5074932;28;20101;-66
2020/12/14 10:38:46;;;;;;;3.55;1.42;;;10.40;99.90;;;;;;5064028;28;20047;-67
2020/12/14 10:41:15;;;;;;;3.00;1.40;;;10.40;99.90;;;;;;5071455;28;20055;-67
2020/12/14 10:43:42;;;;;;;;;;;10.40;99.90;;;;;;5072966;28;20052;-67
2020/12/14 10:46:08;;;;;;;2.58;1.25;;;10.50;99.90;;;;;;5076203;28;19921;-67
2020/12/14 10:48:35;;;;;;;3.97;1.80;;;10.40;99.90;;;;;;5071302;28;20048;-67
2020/12/14 10:51:01;;;;;;;3.17;1.60;;;10.40;99.90;;;;;;5071158;28;20056;-67
2020/12/14 10:53:28;;;;;;;2.35;1.40;;;10.40;99.90;;;;;;5069719;28;20055;-67
2020/12/14 10:55:55;;;;;;;3.20;1.65;;;10.30;99.90;;;;;;5074558;28;20040;-67
2020/12/14 10:58:22;;;;;;;2.88;1.85;;;10.40;99.90;;;;;;5074699;28;20449;-67
2020/12/14 11:00:49;;;;;;;3.88;1.88;;;10.60;99.90;;;;;;5068007;28;20056;-67
2020/12/14 11:03:15;;;;;;;3.55;1.73;;;10.90;99.90;;;;;;5066323;28;20056;-67
2020/12/14 11:05:42;;;;;;;3.92;1.63;;;11.00;99.90;;;;;;5076700;28;20082;-67
2020/12/14 11:08:08;;;;;;;4.05;1.85;;;11.10;99.90;;;;;;5073676;28;20091;-67
2020/12/14 11:10:35;;;;;;;3.45;2.35;;;11.10;99.90;;;;;;5073987;28;20057;-67
2020/12/14 11:13:02;;;;;;;3.92;1.20;;;11.30;99.90;;;;;;5075402;28;20116;-67
2020/12/14 11:15:29;;;;;;;3.25;1.52;;;11.10;99.90;;;;;;5074473;28;20048;-67
2020/12/14 11:17:56;;;;;;;2.55;1.45;;;11.20;99.90;;;;;;5074046;28;20061;-68
2020/12/14 11:20:23;;;;;;;3.65;2.03;;;10.90;99.90;;;;;;5073757;28;20052;-68
2020/12/14 11:22:49;;;;;;;3.53;1.83;;;11.00;99.90;;;;;;5074279;28;20094;-68
2020/12/14 11:25:17;;;;;;;2.80;1.40;;;11.00;99.90;;;;;;5078058;28;20507;-68
2020/12/14 11:27:43;;;;;;;5.35;2.05;;;11.00;99.90;;;;;;5073816;28;20052;-68
2020/12/14 11:30:10;;;;;;;4.05;1.95;;;11.20;99.90;;;;;;5074284;28;20048;-68
2020/12/14 11:32:37;;;;;;;2.67;1.70;;;11.60;99.90;;;;;;5074056;28;20157;-68
2020/12/14 11:35:04;;;;;;;3.00;1.40;;;11.60;99.90;;;;;;5074375;28;20535;-67
2020/12/14 11:37:31;;;;;;;2.33;1.50;;;11.80;99.90;;;;;;5073818;28;20090;-67
2020/12/14 11:39:57;;;;;;;3.05;1.50;;;11.80;99.90;;;;;;5073648;28;20048;-67
2020/12/14 11:42:24;;;;;;;3.78;1.70;;;12.00;99.90;;;;;;5073144;28;20452;-67
2020/12/14 11:44:51;;;;;;;2.72;1.45;;;12.20;99.90;;;;;;5074276;28;20112;-67
2020/12/14 11:47:18;;;;;;;3.35;1.40;;;11.90;99.90;;;;;;5073051;28;20110;-67
2020/12/14 11:49:45;;;;;;;3.22;1.55;;;11.70;99.90;;;;;;5073512;28;20106;-67
2020/12/14 11:52:12;;;;;;;3.42;1.80;;;11.70;99.90;;;;;;5073939;28;20053;-67
2020/12/14 11:54:38;;;;;;;2.35;2.10;;;11.80;99.90;;;;;;5073731;28;20102;-67
2020/12/14 11:57:05;;;;;;;2.67;2.47;;;12.00;99.90;;;;;;5073036;28;20041;-67
2020/12/14 11:59:33;;;;;;;3.97;2.28;;;12.00;99.90;;;;;;5073033;28;20076;-67
2020/12/14 12:02:00;;;;;;;3.13;1.65;;;12.20;99.90;;;;;;5073332;28;20048;-67
2020/12/14 12:04:27;;;;;;;3.05;1.40;;;12.20;99.90;;;;;;5073156;28;20044;-67
2020/12/14 12:06:57;;;;;;;4.55;1.42;;;12.10;99.90;;;;;;5073179;28;20052;-67
2020/12/14 12:09:26;;;;;;;3.38;1.70;;;11.90;99.90;;;;;;5073137;28;20453;-67
2020/12/14 12:11:53;;;;;;;5.50;1.65;;;11.90;99.90;;;;;;5072697;28;20118;-67
2020/12/14 12:14:19;;;;;;;8.73;8.07;;;12.10;99.90;;;;;;5077178;28;20040;-67
2020/12/14 12:16:46;;;;;;;13.52;12.82;;;12.80;99.90;;;;;;5071520;28;20440;-67
2020/12/14 12:19:14;;;;;;;13.93;13.23;;;13.80;99.90;;;;;;5073439;28;20053;-67
2020/12/14 12:21:41;;;;;;;14.07;13.35;;;14.70;99.90;;;;;;5075882;28;20055;-67
2020/12/14 12:24:08;;;;;;;20.30;19.23;;;15.50;99.90;;;;;;5073116;28;20048;-67
2020/12/14 12:26:34;;;;;;;19.95;19.08;;;16.20;99.90;;;;;;5074111;28;20053;-67
2020/12/14 12:29:01;;;;;;;3.50;1.90;;;16.20;99.90;;;;;;5074985;28;20045;-67
2020/12/14 12:31:28;;;;;;;3.13;1.30;;;16.10;99.90;;;;;;5073987;28;20072;-67
2020/12/14 12:33:54;;;;;;;2.63;1.40;;;15.30;99.90;;;;;;5073177;28;20148;-67
2020/12/14 12:36:21;;;;;;;3.92;2.35;;;14.60;99.90;;;;;;5073537;28;20393;-67
2020/12/14 12:38:47;;;;;;;3.45;1.75;;;14.50;99.90;;;;;;5081046;28;20409;-67
2020/12/14 12:41:18;;;;;;;2.65;1.50;;;14.20;99.90;;;;;;5077090;28;20121;-67
2020/12/14 12:43:47;;;;;;;4.57;3.20;;;14.10;99.90;;;;;;5076481;28;20041;-67
2020/12/14 12:46:13;;;;;;;2.67;1.45;;;14.10;99.90;;;;;;5074748;28;20049;-67
2020/12/14 12:48:40;;;;;;;3.35;2.00;;;14.00;99.90;;;;;;5072242;28;20094;-67
2020/12/14 12:51:08;;;;;;;5.90;5.50;;;14.20;99.90;;;;;;5072591;28;20465;-67
2020/12/14 12:53:35;;;;;;;3.28;2.33;;;14.10;99.90;;;;;;5086558;28;20063;-67
2020/12/14 12:56:02;;;;;;;4.10;3.80;;;14.10;99.90;;;;;;5071977;28;20041;-67
2020/12/14 12:58:29;;;;;;;26.92;25.70;;;14.40;99.90;;;;;;5074379;28;20051;-67
2020/12/14 13:00:56;;;;;;;11.02;10.38;;;14.40;99.90;;;;;;5076350;28;20048;-67